< < Back
Terminal Aerodrome Forecast


Current Version              Previous Versions:   1  2  3  4  5  6  7  8  9  

Terminal Aerodrome Forecast

937
FTUS42 KGSP 060112 AAF
TAFAVL
TAF AMD
KAVL 060112Z 0601/0624 35015G25KT P6SM BKN035
     FM060700 35012G20KT P6SM BKN035
     FM061300 36011KT P6SM SCT110=



Latest METAR

980
SAUS70 KWBC 061400 RRK
MTRAVL
METAR KAVL 061354Z 34007KT 10SM CLR M04/M10 A3039 RMK AO2 SLP308
T10441100


USA.gov is the U.S. government's official web portal to all federal, state and local government web resources and services.